Time;durP1;ratioP1;P1;durP2;ratioP2;P2;SDS_P1;SDS_P2;PMS_P1;PMS_P2;Temp;Humidity;BMP_temperature;BMP_pressure;BME280_temperature;BME280_humidity;BME280_pressure;Samples;Min_cycle;Max_cycle;Signal;HPM_P1;HPM_P2
2022/10/27 00:02:13;;;;;;;12.35;5.18;;;;;;;14.17;100.00;102057.34;5007797;28;20026;-64
2022/10/27 00:04:38;;;;;;;11.60;6.13;;;;;;;14.07;100.00;102058.94;5007094;28;20487;-64
2022/10/27 00:07:03;;;;;;;13.75;5.57;;;;;;;14.01;100.00;102049.63;5007300;28;20034;-65
2022/10/27 00:09:29;;;;;;;13.60;6.10;;;;;;;13.96;100.00;102053.06;5006037;28;20564;-64
2022/10/27 00:11:55;;;;;;;14.30;6.00;;;;;;;13.92;100.00;102056.50;5006819;28;20125;-65
2022/10/27 00:14:20;;;;;;;12.65;6.05;;;;;;;13.84;100.00;102048.47;5006519;28;20046;-64
2022/10/27 00:16:52;;;;;;;14.13;6.75;;;;;;;13.81;100.00;102049.78;5007321;28;20040;-65
2022/10/27 00:19:18;;;;;;;14.48;6.75;;;;;;;13.77;100.00;102054.03;5007936;28;20424;-64
2022/10/27 00:21:43;;;;;;;11.40;6.43;;;;;;;13.73;100.00;102052.78;5007738;28;20034;-64
2022/10/27 00:24:08;;;;;;;12.13;6.88;;;;;;;13.67;100.00;102054.53;5007832;28;20705;-64
2022/10/27 00:26:33;;;;;;;12.43;7.28;;;;;;;13.64;100.00;102055.00;5005849;28;20044;-64
2022/10/27 00:28:59;;;;;;;11.25;6.75;;;;;;;13.60;100.00;102059.25;5006560;28;20026;-64
2022/10/27 00:31:24;;;;;;;11.15;6.50;;;;;;;13.55;100.00;102058.22;5007010;28;20456;-64
2022/10/27 00:33:50;;;;;;;14.80;7.20;;;;;;;13.51;100.00;102060.56;5006388;28;20034;-65
2022/10/27 00:36:20;;;;;;;11.85;6.57;;;;;;;13.48;100.00;102066.53;5005145;28;20034;-64
2022/10/27 00:38:46;;;;;;;14.80;7.65;;;;;;;13.42;100.00;102065.50;5007517;28;20030;-64
2022/10/27 00:41:28;;;;;;;14.90;7.05;;;;;;;13.41;100.00;102071.25;5008025;28;20037;-64
2022/10/27 00:43:55;;;;;;;13.95;6.43;;;;;;;13.30;100.00;102070.03;5006619;28;20037;-65
2022/10/27 00:46:25;;;;;;;14.13;7.03;;;;;;;13.24;100.00;102073.66;5005893;28;20163;-64
2022/10/27 00:48:57;;;;;;;12.65;7.22;;;;;;;13.21;100.00;102079.56;5004979;28;20372;-64
2022/10/27 00:51:23;;;;;;;13.30;6.72;;;;;;;13.18;100.00;102077.25;5007430;28;20075;-64
2022/10/27 00:53:49;;;;;;;15.55;7.45;;;;;;;13.15;100.00;102077.69;5007353;28;20022;-65
2022/10/27 00:56:15;;;;;;;12.90;6.85;;;;;;;13.11;100.00;102080.03;5008579;28;20026;-65
2022/10/27 00:58:42;;;;;;;14.98;7.28;;;;;;;13.11;100.00;102079.19;5007121;28;20088;-65
2022/10/27 01:01:07;;;;;;;12.88;7.35;;;;;;;13.11;100.00;102079.19;5005123;28;20404;-64
2022/10/27 01:03:33;;;;;;;12.75;7.78;;;;;;;13.11;100.00;102084.69;5006414;28;20041;-65
2022/10/27 01:05:58;;;;;;;16.80;7.78;;;;;;;13.11;100.00;102085.53;5054577;22;20144;-64
2022/10/27 01:08:25;;;;;;;15.68;7.55;;;;;;;13.07;100.00;102086.19;5011610;28;20048;-64
2022/10/27 01:10:52;;;;;;;15.52;7.50;;;;;;;12.99;100.00;102079.03;5024243;28;20505;-65
2022/10/27 01:13:18;;;;;;;13.30;7.10;;;;;;;12.99;100.00;102085.38;5026951;28;20083;-64
2022/10/27 01:15:43;;;;;;;14.15;7.68;;;;;;;12.96;100.00;102093.22;5007349;28;20044;-64
2022/10/27 01:18:29;;;;;;;11.70;7.17;;;;;;;12.94;100.00;102087.09;5005850;28;20033;-64
2022/10/27 01:21:32;;;;;;;15.05;7.05;;;;;;;12.95;100.00;102092.38;5006596;28;20161;-64
2022/10/27 01:24:16;;;;;;;11.38;7.20;;;;;;;12.91;100.00;102091.13;5003165;28;20096;-64
2022/10/27 01:27:20;;;;;;;13.50;6.75;;;;;;;12.91;100.00;102085.59;5006274;28;20041;-64
2022/10/27 01:30:03;;;;;;;12.25;6.45;;;;;;;12.86;100.00;102093.66;4999205;28;20404;-63
2022/10/27 01:33:02;;;;;;;13.80;7.43;;;;;;;12.82;100.00;102088.78;5005199;28;20030;-64
2022/10/27 01:36:01;;;;;;;12.77;7.00;;;;;;;12.82;100.00;102088.78;5019976;28;20036;-63
2022/10/27 01:38:31;;;;;;;12.18;7.40;;;;;;;12.79;100.00;102092.00;5005750;28;20080;-64
2022/10/27 01:41:04;;;;;;;11.50;7.40;;;;;;;12.78;100.00;102098.59;5005232;28;20026;-64
2022/10/27 01:43:30;;;;;;;12.27;7.72;;;;;;;12.76;100.00;102098.78;5006084;28;20062;-64
2022/10/27 01:45:57;;;;;;;12.90;7.32;;;;;;;12.76;100.00;102096.03;5005733;28;20060;-64
2022/10/27 01:48:23;;;;;;;14.57;7.57;;;;;;;12.75;100.00;102097.09;5013380;28;20060;-64
2022/10/27 01:50:48;;;;;;;13.60;8.50;;;;;;;12.80;100.00;102099.22;5006336;28;20038;-64
2022/10/27 01:53:13;;;;;;;13.00;7.75;;;;;;;12.82;100.00;102086.03;5009579;28;20029;-64
2022/10/27 01:56:00;;;;;;;15.10;8.20;;;;;;;12.85;100.00;102091.13;5009270;28;20037;-64
2022/10/27 01:58:50;;;;;;;16.27;7.70;;;;;;;12.81;100.00;102098.13;5009693;28;20341;-64
2022/10/27 02:01:40;;;;;;;13.13;7.47;;;;;;;12.80;100.00;102093.69;5009978;28;21196;-64
2022/10/27 02:04:15;;;;;;;14.82;7.95;;;;;;;12.81;100.00;102096.22;5017829;28;20041;-64
2022/10/27 02:06:58;;;;;;;13.82;7.15;;;;;;;12.73;100.00;102090.97;5011383;28;20038;-64
2022/10/27 02:10:01;;;;;;;14.60;7.75;;;;;;;12.76;100.00;102092.41;5008778;28;22056;-64
2022/10/27 02:12:33;;;;;;;14.43;7.85;;;;;;;12.64;100.00;102075.69;5008984;28;20076;-64
2022/10/27 02:15:02;;;;;;;11.77;8.10;;;;;;;12.59;100.00;102078.25;5008610;28;20042;-64
2022/10/27 02:17:33;;;;;;;14.32;7.78;;;;;;;12.57;100.00;102078.47;4997246;28;20033;-63
2022/10/27 02:20:03;;;;;;;12.65;7.32;;;;;;;12.54;100.00;102076.13;5007751;28;20022;-64
2022/10/27 02:22:30;;;;;;;15.00;8.25;;;;;;;12.51;100.00;102070.19;5006036;28;20049;-65
2022/10/27 02:24:56;;;;;;;13.10;7.38;;;;;;;12.50;100.00;102071.25;5009033;28;20527;-64
2022/10/27 02:27:47;;;;;;;16.83;8.48;;;;;;;12.51;100.00;102071.03;5008519;28;20030;-64
2022/10/27 02:30:13;;;;;;;16.15;8.20;;;;;;;12.41;100.00;102074.22;5009113;28;20080;-64
2022/10/27 02:32:38;;;;;;;14.15;7.45;;;;;;;12.38;100.00;102068.31;5007968;28;21098;-64
2022/10/27 02:35:06;;;;;;;13.27;8.07;;;;;;;12.37;100.00;102067.47;5008348;28;20034;-64
2022/10/27 02:37:40;;;;;;;14.95;8.13;;;;;;;12.35;100.00;102069.56;5008836;28;20485;-63
2022/10/27 02:40:06;;;;;;;12.80;7.72;;;;;;;12.36;100.00;102065.75;5008252;28;20034;-64
2022/10/27 02:42:32;;;;;;;14.63;7.97;;;;;;;12.32;100.00;102067.25;5009146;28;20034;-64
2022/10/27 02:44:57;;;;;;;15.55;7.57;;;;;;;12.32;100.00;102070.00;5008637;28;20121;-63
2022/10/27 02:47:22;;;;;;;13.90;7.00;;;;;;;12.28;100.00;102065.97;5009009;28;20084;-64
2022/10/27 02:49:48;;;;;;;13.38;7.55;;;;;;;12.28;100.00;102063.22;5011657;28;20034;-64
2022/10/27 02:52:13;;;;;;;13.52;7.63;;;;;;;12.23;100.00;102062.19;5008989;28;20029;-64
2022/10/27 02:54:39;;;;;;;15.30;7.85;;;;;;;12.21;100.00;102059.59;5008561;28;20030;-64
2022/10/27 02:57:04;;;;;;;13.90;6.97;;;;;;;12.24;100.00;102055.59;5008781;28;20476;-64
2022/10/27 02:59:30;;;;;;;13.90;7.93;;;;;;;12.23;100.00;102062.19;5008744;28;20044;-64
2022/10/27 03:01:55;;;;;;;15.27;8.10;;;;;;;12.20;100.00;102053.25;5007152;28;20029;-64
2022/10/27 03:04:20;;;;;;;13.30;7.45;;;;;;;12.17;100.00;102047.34;5021634;28;20026;-64
2022/10/27 03:06:45;;;;;;;13.05;7.45;;;;;;;12.15;100.00;102049.44;5009244;28;20036;-64
2022/10/27 03:09:11;;;;;;;13.85;7.22;;;;;;;12.12;100.00;102047.97;5008103;28;20571;-64
2022/10/27 03:11:36;;;;;;;14.70;7.55;;;;;;;12.12;100.00;102042.47;5008795;28;20551;-64
2022/10/27 03:14:01;;;;;;;13.23;7.70;;;;;;;12.07;100.00;102041.41;5007716;28;20040;-64
2022/10/27 03:16:26;;;;;;;15.17;8.03;;;;;;;12.05;100.00;102040.75;5007324;28;20088;-64
2022/10/27 03:18:52;;;;;;;15.02;7.90;;;;;;;12.01;100.00;102025.72;5019760;28;20600;-64
2022/10/27 03:21:17;;;;;;;12.70;7.93;;;;;;;11.98;100.00;102032.50;5008902;28;20384;-64
2022/10/27 03:23:42;;;;;;;14.60;8.23;;;;;;;11.98;100.00;102038.00;5007820;28;20423;-64
2022/10/27 03:26:08;;;;;;;12.02;8.45;;;;;;;11.96;100.00;102031.84;5008038;28;20033;-64
2022/10/27 03:28:34;;;;;;;13.38;8.00;;;;;;;11.91;100.00;102026.13;5009127;28;20026;-64
2022/10/27 03:31:06;;;;;;;15.63;8.48;;;;;;;11.88;100.00;102024.66;5008411;28;20033;-64
2022/10/27 03:33:31;;;;;;;12.57;8.02;;;;;;;11.86;100.00;102024.03;5006344;28;20057;-64
2022/10/27 03:35:58;;;;;;;13.70;8.20;;;;;;;11.85;100.00;102030.56;5005659;28;20476;-64
2022/10/27 03:38:23;;;;;;;15.57;8.23;;;;;;;11.91;100.00;102034.38;5007325;28;20384;-64
2022/10/27 03:40:49;;;;;;;12.15;7.85;;;;;;;11.88;100.00;102032.06;5008129;28;20044;-64
2022/10/27 03:43:14;;;;;;;14.40;8.15;;;;;;;11.93;100.00;102029.53;5007911;28;20040;-64
2022/10/27 03:45:39;;;;;;;16.45;8.57;;;;;;;11.96;100.00;102023.59;5007857;28;20045;-64
2022/10/27 03:48:14;;;;;;;13.90;7.72;;;;;;;12.00;100.00;102027.63;5006192;28;20476;-64
2022/10/27 03:50:45;;;;;;;14.63;7.65;;;;;;;12.04;100.00;102026.16;5028775;28;20052;-64
2022/10/27 03:53:10;;;;;;;16.00;8.07;;;;;;;12.07;100.00;102024.91;5007516;28;20037;-63
2022/10/27 03:55:36;;;;;;;14.75;8.10;;;;;;;12.04;100.00;102019.78;5007721;28;20042;-63
2022/10/27 03:58:01;;;;;;;14.25;7.63;;;;;;;12.07;100.00;102013.88;5006644;28;20065;-63
2022/10/27 04:00:27;;;;;;;14.05;7.93;;;;;;;12.09;100.00;102017.25;5007786;28;20037;-64
2022/10/27 04:02:53;;;;;;;15.85;7.32;;;;;;;12.04;100.00;102020.63;5007307;28;20028;-64
2022/10/27 04:05:19;;;;;;;13.73;7.90;;;;;;;12.05;100.00;102024.25;5007555;28;20050;-63
2022/10/27 04:07:45;;;;;;;16.15;7.95;;;;;;;12.04;100.00;102019.78;5012048;28;20084;-64
2022/10/27 04:10:10;;;;;;;17.85;7.97;;;;;;;12.02;100.00;102022.78;5007446;28;20093;-64
2022/10/27 04:12:36;;;;;;;14.52;8.50;;;;;;;12.08;100.00;102021.06;5007286;28;20440;-63
2022/10/27 04:15:01;;;;;;;16.92;8.85;;;;;;;12.06;100.00;102023.16;5005176;28;20026;-64
2022/10/27 04:17:26;;;;;;;15.38;8.70;;;;;;;12.01;100.00;102022.97;5005986;28;20477;-64
2022/10/27 04:19:53;;;;;;;16.60;9.38;;;;;;;12.04;100.00;102036.31;5006949;28;20499;-63
2022/10/27 04:22:18;;;;;;;19.17;10.13;;;;;;;12.07;100.00;102035.91;5010691;28;20026;-63
2022/10/27 04:24:43;;;;;;;17.05;10.38;;;;;;;12.08;100.00;102038.44;5009611;28;20615;-64
2022/10/27 04:27:09;;;;;;;15.80;9.88;;;;;;;12.07;100.00;102044.16;5006260;28;20065;-64
2022/10/27 04:29:34;;;;;;;19.30;11.65;;;;;;;12.08;100.00;102043.09;5006599;28;20038;-64
2022/10/27 04:31:59;;;;;;;18.52;10.95;;;;;;;12.09;100.00;102042.03;5020171;28;20054;-64
2022/10/27 04:34:25;;;;;;;19.52;11.57;;;;;;;12.09;100.00;102037.38;5006656;28;20034;-64
2022/10/27 04:36:50;;;;;;;18.20;11.30;;;;;;;12.08;100.00;102043.09;5006467;28;20065;-64
2022/10/27 04:39:15;;;;;;;16.00;10.85;;;;;;;12.04;100.00;102044.56;5007305;28;20033;-64
2022/10/27 04:41:41;;;;;;;17.90;11.85;;;;;;;12.03;100.00;102040.13;5006992;28;20038;-63
2022/10/27 04:44:07;;;;;;;22.30;12.25;;;;;;;12.04;100.00;102037.16;5006692;28;20042;-64
2022/10/27 04:46:32;;;;;;;23.42;12.68;;;;;;;12.02;100.00;102043.97;5006177;28;20037;-64
2022/10/27 04:48:58;;;;;;;18.30;11.75;;;;;;;11.98;100.00;102042.69;5006039;28;20065;-63
2022/10/27 04:51:23;;;;;;;21.17;12.48;;;;;;;11.95;100.00;102038.41;5006545;28;20370;-64
2022/10/27 04:53:48;;;;;;;19.67;12.30;;;;;;;11.91;100.00;102048.16;5005244;28;20049;-64
2022/10/27 04:56:14;;;;;;;19.35;12.23;;;;;;;11.85;100.00;102044.34;5005126;28;20129;-64
2022/10/27 04:58:39;;;;;;;18.63;11.70;;;;;;;11.83;100.00;102040.97;5006563;28;20041;-64
2022/10/27 05:01:06;;;;;;;19.08;11.80;;;;;;;11.82;100.00;102052.19;5004465;28;20029;-63
2022/10/27 05:03:31;;;;;;;17.13;11.07;;;;;;;11.83;100.00;102057.47;5008748;28;20045;-64
2022/10/27 05:05:57;;;;;;;19.58;12.00;;;;;;;11.79;100.00;102053.41;5012327;28;20038;-64
2022/10/27 05:08:23;;;;;;;21.25;11.77;;;;;;;11.77;100.00;102052.78;5010973;28;20506;-63
2022/10/27 05:10:48;;;;;;;19.98;12.15;;;;;;;11.73;100.00;102045.16;5005379;28;20041;-64
2022/10/27 05:13:13;;;;;;;22.30;12.68;;;;;;;11.71;100.00;102045.38;5006838;28;20689;-64
2022/10/27 05:15:39;;;;;;;21.10;11.52;;;;;;;11.69;100.00;102045.56;5020326;28;20030;-63
2022/10/27 05:18:04;;;;;;;21.92;11.80;;;;;;;11.66;100.00;102037.75;5005536;28;20046;-64
2022/10/27 05:20:29;;;;;;;20.63;11.63;;;;;;;11.70;100.00;102050.00;5005655;28;20033;-64
2022/10/27 05:22:54;;;;;;;21.02;12.75;;;;;;;11.65;100.00;102046.19;5007110;28;20029;-64
2022/10/27 05:25:20;;;;;;;17.85;12.27;;;;;;;11.65;100.00;102043.44;5025437;28;20455;-64
2022/10/27 05:27:45;;;;;;;20.20;12.48;;;;;;;11.70;100.00;102044.50;5009926;28;20045;-64
2022/10/27 05:30:11;;;;;;;19.48;12.07;;;;;;;11.69;100.00;102045.56;5005690;28;20060;-64
2022/10/27 05:32:37;;;;;;;17.13;11.82;;;;;;;11.72;100.00;102044.31;5005471;28;20034;-64
2022/10/27 05:35:03;;;;;;;20.25;12.50;;;;;;;11.74;100.00;102044.94;5005766;28;20547;-64
2022/10/27 05:37:28;;;;;;;20.80;12.52;;;;;;;11.73;100.00;102043.25;5005371;28;20042;-64
2022/10/27 05:39:54;;;;;;;25.88;12.20;;;;;;;11.76;100.00;102048.34;5004967;28;20026;-64
2022/10/27 05:42:19;;;;;;;20.75;11.80;;;;;;;11.78;100.00;102039.88;5020518;28;20360;-64
2022/10/27 05:44:44;;;;;;;20.45;12.20;;;;;;;11.81;100.00;102039.44;5006549;28;20036;-63
2022/10/27 05:47:10;;;;;;;19.52;12.43;;;;;;;11.85;100.00;102038.00;5004258;28;20034;-63
2022/10/27 05:49:35;;;;;;;18.45;11.48;;;;;;;11.89;100.00;102042.88;5005447;28;20036;-64
2022/10/27 05:52:00;;;;;;;18.85;11.00;;;;;;;11.95;100.00;102044.78;5005802;28;20034;-64
2022/10/27 05:54:25;;;;;;;19.60;11.63;;;;;;;11.99;100.00;102036.09;5010658;28;20133;-64
2022/10/27 05:56:51;;;;;;;19.77;11.05;;;;;;;12.04;100.00;102030.81;5005675;28;20034;-64
2022/10/27 05:59:16;;;;;;;15.75;9.77;;;;;;;12.08;100.00;102032.09;5006086;28;20025;-63
2022/10/27 06:01:42;;;;;;;16.90;10.30;;;;;;;12.10;100.00;102032.72;5005277;28;20049;-64
2022/10/27 06:04:07;;;;;;;17.27;10.00;;;;;;;12.12;100.00;102033.38;5008842;28;20025;-64
2022/10/27 06:06:32;;;;;;;17.60;10.27;;;;;;;12.14;100.00;102031.22;5003949;28;20045;-63
2022/10/27 06:08:58;;;;;;;16.90;10.38;;;;;;;12.16;100.00;102031.84;5005261;28;20354;-64
2022/10/27 06:11:23;;;;;;;17.58;10.10;;;;;;;12.18;100.00;102030.59;5005397;28;20030;-64
2022/10/27 06:13:50;;;;;;;19.33;10.43;;;;;;;12.19;100.00;102035.03;5005143;28;20465;-64
2022/10/27 06:16:15;;;;;;;19.25;10.02;;;;;;;12.22;100.00;102028.28;5004766;28;20037;-64
2022/10/27 06:18:40;;;;;;;18.80;9.63;;;;;;;12.24;100.00;102026.16;5005586;28;20030;-64
2022/10/27 06:21:06;;;;;;;20.67;10.20;;;;;;;12.28;100.00;102024.66;5010783;28;20034;-64
2022/10/27 06:23:31;;;;;;;14.60;9.32;;;;;;;12.28;100.00;102015.56;5004340;28;20412;-64
2022/10/27 06:25:56;;;;;;;19.77;9.55;;;;;;;12.30;100.00;102024.44;5008293;28;20057;-64
2022/10/27 06:28:21;;;;;;;15.68;9.50;;;;;;;12.33;100.00;102015.75;5004610;28;20030;-64
2022/10/27 06:30:47;;;;;;;21.48;10.07;;;;;;;12.34;100.00;102015.53;4986108;28;20037;-64
2022/10/27 06:33:12;;;;;;;20.88;10.57;;;;;;;12.36;100.00;102020.81;4986232;28;20030;-64
2022/10/27 06:35:38;;;;;;;21.20;9.95;;;;;;;12.38;100.00;102021.47;5000772;28;20027;-64
2022/10/27 06:38:03;;;;;;;18.45;10.10;;;;;;;12.39;100.00;102012.16;4987549;28;20034;-64
2022/10/27 06:40:28;;;;;;;16.50;10.57;;;;;;;12.41;100.00;102010.00;5001972;28;20057;-64
2022/10/27 06:42:53;;;;;;;20.55;10.02;;;;;;;12.41;100.00;102013.59;5008902;28;20018;-64
2022/10/27 06:45:19;;;;;;;14.83;9.50;;;;;;;12.43;100.00;102011.50;5009337;28;20037;-64
2022/10/27 06:47:45;;;;;;;19.27;9.95;;;;;;;12.42;100.00;102018.09;5009460;28;20261;-64
2022/10/27 06:50:10;;;;;;;17.77;10.02;;;;;;;12.41;100.00;102019.13;5009040;28;20119;-64
2022/10/27 06:52:38;;;;;;;17.70;9.52;;;;;;;12.43;100.00;102016.16;5008391;28;20133;-64
2022/10/27 06:55:04;;;;;;;20.80;10.47;;;;;;;12.42;100.00;102009.81;5017782;28;20036;-64
2022/10/27 06:57:38;;;;;;;19.23;10.23;;;;;;;12.43;100.00;102008.75;5029419;28;20079;-64
2022/10/27 07:00:03;;;;;;;17.40;9.52;;;;;;;12.44;100.00;102006.84;5024879;28;20183;-64
2022/10/27 07:02:29;;;;;;;18.10;10.30;;;;;;;12.47;100.00;102003.66;5010140;28;20149;-64
2022/10/27 07:04:55;;;;;;;18.10;10.07;;;;;;;12.49;100.00;102006.19;5018397;28;20137;-64
2022/10/27 07:07:20;;;;;;;15.95;9.88;;;;;;;12.49;100.00;101997.94;5026180;28;20287;-64
2022/10/27 07:09:45;;;;;;;20.58;10.52;;;;;;;12.54;100.00;102000.88;5008888;28;20033;-64
2022/10/27 07:12:10;;;;;;;18.90;10.50;;;;;;;12.59;100.00;102001.09;5009273;28;20033;-64
2022/10/27 07:14:36;;;;;;;15.32;9.75;;;;;;;12.62;100.00;101997.88;5008960;28;20384;-64
2022/10/27 07:17:01;;;;;;;15.75;9.45;;;;;;;12.67;100.00;102014.63;4995799;28;20045;-64
2022/10/27 07:19:26;;;;;;;18.83;9.70;;;;;;;12.70;100.00;102008.69;5018838;28;20087;-64
2022/10/27 07:21:51;;;;;;;16.92;9.82;;;;;;;12.77;100.00;102006.75;5009193;28;20037;-64
2022/10/27 07:24:17;;;;;;;17.35;10.07;;;;;;;12.82;100.00;102006.09;5009034;28;20025;-64
2022/10/27 07:26:42;;;;;;;16.48;9.80;;;;;;;12.87;100.00;102011.78;5006862;28;20080;-64
2022/10/27 07:29:07;;;;;;;21.10;9.98;;;;;;;12.90;100.00;102025.16;5008675;28;20709;-64
2022/10/27 07:31:32;;;;;;;18.15;9.50;;;;;;;12.93;100.00;102014.56;5006396;28;20038;-64
2022/10/27 07:33:58;;;;;;;18.52;10.07;;;;;;;13.03;100.00;102007.69;5024296;28;20068;-64
2022/10/27 07:36:23;;;;;;;16.60;8.75;;;;;;;13.09;100.00;101993.91;5001869;28;20033;-64
2022/10/27 07:38:48;;;;;;;18.40;10.43;;;;;;;13.15;100.00;101995.78;4996859;28;20030;-64
2022/10/27 07:41:13;;;;;;;19.15;9.00;;;;;;;13.23;100.00;101991.97;5002901;28;20069;-64
2022/10/27 07:43:39;;;;;;;21.52;9.30;;;;;;;13.33;100.00;101985.94;4995934;28;20026;-64
2022/10/27 07:46:04;;;;;;;16.88;9.02;;;;;;;13.41;100.00;101993.97;5005925;28;20026;-64
2022/10/27 07:48:29;;;;;;;18.23;9.75;;;;;;;13.49;100.00;102002.84;4997764;28;20053;-64
2022/10/27 07:50:55;;;;;;;16.45;9.38;;;;;;;13.60;100.00;102000.44;5007908;28;20026;-63
2022/10/27 07:53:20;;;;;;;15.75;9.18;;;;;;;13.74;100.00;102000.13;5000016;28;20496;-64
2022/10/27 07:55:45;;;;;;;14.50;8.38;;;;;;;13.88;100.00;102003.59;5005853;28;20018;-64
2022/10/27 07:58:15;;;;;;;19.63;9.35;;;;;;;14.05;100.00;102005.84;5000667;28;20049;-64
2022/10/27 08:00:43;;;;;;;21.27;9.50;;;;;;;14.21;100.00;102010.78;4995950;28;20026;-64
2022/10/27 08:03:18;;;;;;;15.98;9.07;;;;;;;14.30;100.00;102012.19;4997071;28;20036;-63
2022/10/27 08:05:43;;;;;;;14.88;8.98;;;;;;;14.39;99.71;102004.44;5002936;28;20066;-64
2022/10/27 08:08:09;;;;;;;15.35;9.00;;;;;;;14.47;99.34;102010.56;5002855;28;20069;-63
2022/10/27 08:10:37;;;;;;;17.45;9.05;;;;;;;14.54;97.61;102014.09;4998533;28;20088;-63
2022/10/27 08:13:03;;;;;;;;;;;;;;;14.64;99.61;102005.25;5006635;28;20034;-63
2022/10/27 08:15:29;;;;;;;18.63;9.60;;;;;;;14.65;97.18;102006.09;5005552;28;19917;-64
2022/10/27 08:17:58;;;;;;;14.77;10.07;;;;;;;14.72;97.50;102001.38;5003516;28;20025;-63
2022/10/27 08:20:24;;;;;;;14.40;8.80;;;;;;;14.82;96.79;102001.69;4995842;28;20029;-63
2022/10/27 08:22:57;;;;;;;14.23;8.73;;;;;;;15.03;96.09;102003.97;5005871;28;20564;-64
2022/10/27 08:25:22;;;;;;;17.58;9.55;;;;;;;15.15;96.12;101997.63;5006106;28;20099;-63
2022/10/27 08:27:48;;;;;;;19.40;9.43;;;;;;;15.23;94.85;101986.25;5002705;28;20480;-63
2022/10/27 08:30:13;;;;;;;14.00;8.65;;;;;;;15.39;94.24;101984.75;5002757;28;20044;-63
2022/10/27 08:32:38;;;;;;;15.88;8.82;;;;;;;15.47;93.37;101988.03;5003243;28;20033;-63
2022/10/27 08:35:04;;;;;;;12.85;8.23;;;;;;;15.88;90.97;101989.13;5007586;28;20037;-63
2022/10/27 08:37:29;;;;;;;12.23;7.95;;;;;;;16.79;85.18;101984.94;5004917;28;20034;-63
2022/10/27 08:39:54;;;;;;;14.48;8.00;;;;;;;17.74;79.43;101977.06;4995691;28;20741;-63
2022/10/27 08:42:31;;;;;;;14.27;7.70;;;;;;;18.73;77.86;101979.22;4995336;28;20083;-64
2022/10/27 08:45:05;;;;;;;12.50;6.68;;;;;;;19.34;74.26;101977.16;4999313;28;20316;-64
2022/10/27 08:47:30;;;;;;;13.85;6.93;;;;;;;19.75;69.91;101963.66;5005468;28;20025;-64
2022/10/27 08:50:04;;;;;;;10.02;6.05;;;;;;;20.58;67.11;101976.03;5005144;28;20503;-64
2022/10/27 08:52:37;;;;;;;11.57;5.63;;;;;;;21.40;63.64;101970.81;5005884;28;20083;-64
2022/10/27 08:55:12;;;;;;;11.93;6.03;;;;;;;22.13;62.16;101977.03;5007406;28;20483;-64
2022/10/27 08:57:40;;;;;;;9.88;5.97;;;;;;;22.15;58.58;101969.22;5007540;28;20044;-65
2022/10/27 09:00:05;;;;;;;;;;;;;;;22.55;66.41;101970.22;5007925;28;20042;-64
2022/10/27 09:02:52;;;;;;;10.35;5.32;;;;;;;22.35;61.57;101971.09;4994189;28;19928;-64
2022/10/27 09:05:36;;;;;;;9.60;4.80;;;;;;;22.08;57.49;101967.78;5007327;28;20690;-64
2022/10/27 09:08:10;;;;;;;10.95;4.47;;;;;;;21.49;59.55;101961.59;5006698;28;20036;-64
2022/10/27 09:10:46;;;;;;;7.78;3.90;;;;;;;20.89;58.91;101953.84;5006734;28;20037;-64
2022/10/27 09:13:38;;;;;;;10.15;4.65;;;;;;;21.06;62.94;101943.28;4992184;28;20350;-64
2022/10/27 09:16:11;;;;;;;13.25;4.72;;;;;;;21.40;59.37;101945.66;5001472;28;20377;-64
2022/10/27 09:18:40;;;;;;;10.40;4.72;;;;;;;21.12;60.18;101935.75;5009223;28;20082;-64
2022/10/27 09:21:15;;;;;;;8.07;4.22;;;;;;;21.24;61.55;101928.00;5015380;28;20021;-64
2022/10/27 09:23:48;;;;;;;10.73;3.97;;;;;;;21.61;58.44;101933.38;4998965;28;20034;-64
2022/10/27 09:26:17;;;;;;;8.52;3.60;;;;;;;21.45;58.99;101942.88;4990196;28;20056;-64
2022/10/27 09:28:50;;;;;;;8.65;3.65;;;;;;;21.30;60.30;101942.81;4994892;28;20801;-64
2022/10/27 09:31:39;;;;;;;7.50;3.22;;;;;;;21.14;59.67;101939.13;5002259;28;20050;-64
2022/10/27 09:34:17;;;;;;;6.45;2.80;;;;;;;20.87;60.49;101928.13;4997556;28;20041;-64
2022/10/27 09:36:42;;;;;;;6.88;3.03;;;;;;;21.09;58.83;101928.78;4994520;28;20717;-64
2022/10/27 09:39:08;;;;;;;6.97;2.83;;;;;;;21.27;60.19;101923.78;4998710;28;20033;-64
2022/10/27 09:41:33;;;;;;;7.43;3.00;;;;;;;21.18;60.09;101923.47;5001939;28;20038;-64
2022/10/27 09:43:59;;;;;;;7.78;3.30;;;;;;;20.83;61.35;101925.03;4993535;28;20034;-64
2022/10/27 09:46:27;;;;;;;8.27;2.90;;;;;;;20.54;60.76;101921.03;4996242;28;20030;-64
2022/10/27 09:49:01;;;;;;;6.88;3.00;;;;;;;20.45;60.68;101912.28;4995181;28;20516;-64
2022/10/27 09:51:37;;;;;;;6.85;2.90;;;;;;;21.28;61.72;101917.06;4995337;28;21455;-64
2022/10/27 09:54:04;;;;;;;8.23;2.97;;;;;;;22.03;57.78;101904.25;4996262;28;20033;-64
2022/10/27 09:56:32;;;;;;;9.40;3.27;;;;;;;22.79;54.45;101904.06;4991759;28;20046;-64
2022/10/27 09:59:02;;;;;;;7.43;3.00;;;;;;;23.65;53.26;101903.84;4998441;28;20118;-64
2022/10/27 10:01:34;;;;;;;8.10;3.25;;;;;;;24.62;50.67;101908.47;4993977;28;20030;-63
2022/10/27 10:04:05;;;;;;;4.97;2.40;;;;;;;25.43;48.19;101904.56;4996915;28;20061;-64
2022/10/27 10:06:35;;;;;;;9.88;3.03;;;;;;;25.88;47.36;101917.06;5001598;28;20053;-64
2022/10/27 10:09:30;;;;;;;7.75;2.50;;;;;;;26.94;45.71;101920.09;4993057;28;20396;-64
2022/10/27 10:12:24;;;;;;;7.63;2.50;;;;;;;26.82;47.59;101917.81;4998816;28;20034;-64
2022/10/27 10:14:50;;;;;;;6.13;2.65;;;;;;;26.52;43.27;101908.00;4994434;28;20084;-64
2022/10/27 10:17:20;;;;;;;7.55;2.78;;;;;;;26.58;45.15;101901.13;4993987;28;20030;-64
2022/10/27 10:19:46;;;;;;;6.07;2.28;;;;;;;26.97;43.90;101885.59;4996293;28;20068;-64
2022/10/27 10:22:20;;;;;;;6.22;2.20;;;;;;;27.10;44.54;101890.41;4997919;28;20036;-64
2022/10/27 10:24:46;;;;;;;7.38;2.50;;;;;;;26.14;44.45;101894.06;5006566;28;20063;-64
2022/10/27 10:27:24;;;;;;;5.78;2.45;;;;;;;25.41;49.18;101889.13;4996984;28;20041;-64
2022/10/27 10:29:49;;;;;;;6.10;2.67;;;;;;;24.19;48.50;101891.56;5005918;28;20109;-64
2022/10/27 10:32:28;;;;;;;6.72;2.35;;;;;;;23.17;51.61;101893.25;5019980;28;20456;-64
2022/10/27 10:34:54;;;;;;;7.78;2.40;;;;;;;22.53;53.32;101882.88;5018451;28;20025;-64
2022/10/27 10:37:45;;;;;;;9.18;2.72;;;;;;;22.36;55.06;101879.59;5029500;28;20037;-64
2022/10/27 10:40:13;;;;;;;8.98;2.10;;;;;;;21.86;55.52;101884.16;5009217;28;20087;-64
2022/10/27 10:42:42;;;;;;;7.18;2.30;;;;;;;21.91;56.36;101889.75;5010305;28;20045;-64
2022/10/27 10:45:09;;;;;;;5.35;2.13;;;;;;;21.74;57.57;101888.06;5024375;28;20029;-64
2022/10/27 10:47:36;;;;;;;6.47;2.20;;;;;;;21.65;57.79;101875.78;5026898;28;20037;-64
2022/10/27 10:50:02;;;;;;;5.75;2.20;;;;;;;21.55;60.08;101861.81;5010136;28;20427;-64
2022/10/27 10:52:34;;;;;;;6.63;2.40;;;;;;;21.73;57.63;101874.38;5009105;28;20117;-64
2022/10/27 10:55:06;;;;;;;6.18;2.28;;;;;;;21.92;59.34;101869.88;5008858;28;21745;-64
2022/10/27 10:57:38;;;;;;;6.05;2.15;;;;;;;22.99;58.49;101866.72;5009929;28;20384;-64
2022/10/27 11:00:06;;;;;;;5.40;2.00;;;;;;;23.13;54.33;101860.47;5007515;28;20065;-64
2022/10/27 11:02:32;;;;;;;;;;;;;;;23.31;54.90;101851.34;5006835;28;20029;-64
2022/10/27 11:05:10;;;;;;;3.38;1.60;;;;;;;22.46;57.16;101849.59;5010784;28;19917;-64
2022/10/27 11:07:36;;;;;;;4.78;1.80;;;;;;;21.71;57.11;101851.44;5006837;28;20026;-63
2022/10/27 11:10:39;;;;;;;7.95;1.85;;;;;;;21.28;60.08;101852.81;5007489;28;20499;-63
2022/10/27 11:13:18;;;;;;;6.55;1.85;;;;;;;20.90;60.69;101860.56;4986250;28;20042;-64
2022/10/27 11:15:49;;;;;;;6.97;2.55;;;;;;;20.69;61.56;101862.47;5007196;28;20083;-64
2022/10/27 11:18:43;;;;;;;4.78;2.00;;;;;;;20.74;62.67;101862.50;5007702;28;20512;-64
2022/10/27 11:21:17;;;;;;;3.92;1.67;;;;;;;20.68;62.83;101871.94;4987289;28;20069;-64